Kimberley Downs, Australia
Current Conditions -  °F | °C
As of 1:30 PM on Saturday 25 Oct 2014 (Local Time) from YCIN Reporting Station
Clear Clear  
Wind Chill: 99°   Ceiling: Unl
Heat Index: 100°   Visibility: NA
Dew Point: 63°   Wind: 6mph
Humidity: 30%   Direction: 30°NNE
Pressure: 29.83"   Gusts: NA
Location:  17.4°S, 124.35°E
Report Text: YCIN 250530Z AUTO 03005KT //// // NCD 37/17 Q1010
Loading
Personal Weather Stations






























Interactive Weather Map
Tropical Storm Tracking
New forecast layout! Learn more

10-Day Weather Forecast

Advertisements
Track Severe Weather on mobile